createdAt,value
2018-11-21T00:01:50.039Z,100037.34
2018-11-21T00:04:38.118Z,100042.73
2018-11-21T00:07:07.053Z,100041.11
2018-11-21T00:09:55.709Z,100031.72
2018-11-21T00:12:24.629Z,100031.93
2018-11-21T00:14:53.603Z,100040.52
2018-11-21T00:17:22.828Z,100037.28
2018-11-21T00:19:51.775Z,100038.05
2018-11-21T00:22:40.248Z,100039.37
2018-11-21T00:25:28.549Z,100044.13
2018-11-21T00:27:57.488Z,100045.59
2018-11-21T00:30:45.939Z,100046.39
2018-11-21T00:33:16.316Z,100047.78
2018-11-21T00:36:05.992Z,100041.42
2018-11-21T00:38:54.074Z,100044.72
2018-11-21T00:41:42.143Z,100056.95
2018-11-21T00:44:30.208Z,100051.53
2018-11-21T00:47:18.300Z,100052.64
2018-11-21T00:49:47.239Z,100053.89
2018-11-21T00:52:35.306Z,100052.92
2018-11-21T00:55:04.255Z,100059.73
2018-11-21T00:57:33.331Z,100062.69
2018-11-21T01:00:02.288Z,100064.15
2018-11-21T01:05:26.154Z,100063.70
2018-11-21T01:11:10.620Z,100067.06
2018-11-21T01:13:59.332Z,100064.42
2018-11-21T01:16:28.272Z,100055.48
2018-11-21T01:19:16.655Z,100056.35
2018-11-21T01:21:45.697Z,100054.75
2018-11-21T01:24:34.404Z,100053.30
2018-11-21T01:27:03.336Z,100053.36
2018-11-21T01:29:32.256Z,100052.05
2018-11-21T01:32:20.325Z,100055.17
2018-11-21T01:34:49.272Z,100055.55
2018-11-21T01:37:37.437Z,100060.52
2018-11-21T01:40:26.802Z,100058.80
2018-11-21T01:43:14.864Z,100063.86
2018-11-21T01:45:43.763Z,100064.88
2018-11-21T01:48:12.734Z,100060.18
2018-11-21T01:50:41.660Z,100064.00
2018-11-21T01:53:10.632Z,100064.35
2018-11-21T01:55:40.033Z,100060.91
2018-11-21T01:58:28.126Z,100057.47
2018-11-21T02:00:57.465Z,100064.53
2018-11-21T02:03:26.734Z,100062.30
2018-11-21T02:05:55.752Z,100064.14
2018-11-21T02:08:25.098Z,100059.90
2018-11-21T02:11:13.191Z,100060.25
2018-11-21T02:14:01.308Z,100064.73
2018-11-21T02:16:30.309Z,100068.25
2018-11-21T02:18:59.589Z,100069.88
2018-11-21T02:21:48.000Z,100068.48
2018-11-21T02:24:36.067Z,100066.50
2018-11-21T02:27:05.111Z,100072.87
2018-11-21T02:29:53.276Z,100069.56
2018-11-21T02:32:22.294Z,100067.44
2018-11-21T02:35:10.460Z,100066.47
2018-11-21T02:37:58.606Z,100066.19
2018-11-21T02:40:46.719Z,100065.59
2018-11-21T02:43:35.041Z,100062.16
2018-11-21T02:46:03.947Z,100062.30
2018-11-21T02:48:52.087Z,100065.08
2018-11-21T02:51:21.064Z,100071.99
2018-11-21T02:54:09.194Z,100074.48
2018-11-21T02:57:17.171Z,100073.45
2018-11-21T03:00:05.603Z,100073.38
2018-11-21T03:02:53.823Z,100080.27
2018-11-21T03:05:22.886Z,100072.52
2018-11-21T03:08:11.128Z,100076.17
2018-11-21T03:10:40.299Z,100074.13
2018-11-21T03:13:28.614Z,100070.37
2018-11-21T03:16:16.840Z,100074.92
2018-11-21T03:18:45.801Z,100077.34
2018-11-21T03:21:15.490Z,100076.31
2018-11-21T03:23:44.421Z,100071.79
2018-11-21T03:26:13.664Z,100081.91
2018-11-21T03:29:02.064Z,100080.94
2018-11-21T03:31:50.601Z,100077.56
2018-11-21T03:34:38.965Z,100084.48
2018-11-21T03:37:27.070Z,100087.71
2018-11-21T03:40:15.465Z,100078.53
2018-11-21T03:42:44.449Z,100093.13
2018-11-21T03:45:13.773Z,100091.95
2018-11-21T03:47:42.823Z,100084.62
2018-11-21T03:50:12.954Z,100081.91
2018-11-21T03:52:41.923Z,100083.95
2018-11-21T03:55:10.875Z,100086.14
2018-11-21T03:57:40.008Z,100078.67
2018-11-21T04:00:10.617Z,100078.60
2018-11-21T04:02:58.906Z,100078.95
2018-11-21T04:05:46.977Z,100077.22
2018-11-21T04:08:38.695Z,100083.30
2018-11-21T04:11:04.079Z,100075.75
2018-11-21T04:13:52.187Z,100076.69
2018-11-21T04:16:40.823Z,100073.91
2018-11-21T04:19:28.900Z,100087.92
2018-11-21T04:22:16.983Z,100087.13
2018-11-21T04:25:05.101Z,100082.05
2018-11-21T04:27:34.166Z,100092.68
2018-11-21T04:30:22.235Z,100094.07
2018-11-21T04:33:10.332Z,100098.34
2018-11-21T04:35:58.395Z,100093.06
2018-11-21T04:38:46.537Z,100097.90
2018-11-21T04:41:34.870Z,100108.25
2018-11-21T04:44:03.826Z,100111.69
2018-11-21T04:46:33.119Z,100114.27
2018-11-21T04:49:21.216Z,100118.96
2018-11-21T04:52:09.602Z,100122.41
2018-11-21T04:54:38.846Z,100128.20
2018-11-21T04:57:26.938Z,100133.77
2018-11-21T05:00:14.982Z,100132.38
2018-11-21T05:03:03.395Z,100134.02
2018-11-21T05:05:51.471Z,100141.70
2018-11-21T05:08:40.150Z,100145.17
2018-11-21T05:11:28.229Z,100136.00
2018-11-21T05:13:57.568Z,100140.62
2018-11-21T05:16:26.586Z,100145.73
2018-11-21T05:18:55.648Z,100137.01
2018-11-21T05:21:24.543Z,100141.35
2018-11-21T05:24:13.136Z,100145.91
2018-11-21T05:26:42.177Z,100149.03
2018-11-21T05:29:30.320Z,100157.41
2018-11-21T05:32:18.385Z,100158.21
2018-11-21T05:34:47.678Z,100160.20
2018-11-21T05:37:35.809Z,100163.28
2018-11-21T05:40:25.751Z,100154.25
2018-11-21T05:43:13.887Z,100157.87
2018-11-21T05:45:42.839Z,100155.57
2018-11-21T05:48:30.963Z,100160.86
2018-11-21T05:50:59.928Z,100168.50
2018-11-21T05:53:48.819Z,100169.95
2018-11-21T05:56:18.292Z,100171.41
2018-11-21T05:59:06.393Z,100174.56
2018-11-21T06:01:35.320Z,100175.95
2018-11-21T06:04:04.679Z,100181.83
2018-11-21T06:06:33.581Z,100181.98
2018-11-21T06:09:02.570Z,100177.94
2018-11-21T06:11:50.943Z,100183.88
2018-11-21T06:14:20.005Z,100189.40
2018-11-21T06:17:08.197Z,100196.13
2018-11-21T06:19:57.432Z,100196.34
2018-11-21T06:22:46.046Z,100198.91
2018-11-21T06:25:34.361Z,100197.58
2018-11-21T06:28:22.437Z,100204.58
2018-11-21T06:30:51.659Z,100205.15
2018-11-21T06:33:40.038Z,100196.58
2018-11-21T06:36:28.683Z,100195.02
2018-11-21T06:38:57.921Z,100196.58
2018-11-21T06:41:46.342Z,100200.15
2018-11-21T06:44:34.482Z,100207.66
2018-11-21T06:47:03.871Z,100209.98
2018-11-21T06:49:32.879Z,100222.88
2018-11-21T06:52:22.213Z,100221.25
2018-11-21T06:55:09.047Z,100227.28
2018-11-21T06:57:57.158Z,100229.77
2018-11-21T07:00:45.308Z,100244.60
2018-11-21T07:03:33.467Z,100234.25
2018-11-21T07:06:21.945Z,100238.72
2018-11-21T07:09:10.237Z,100236.96
2018-11-21T07:11:58.323Z,100249.16
2018-11-21T07:14:46.716Z,100246.12
2018-11-21T07:17:34.775Z,100248.48
2018-11-21T07:20:03.802Z,100249.08
2018-11-21T07:22:52.200Z,100251.56
2018-11-21T07:25:22.404Z,100251.80
2018-11-21T07:27:51.364Z,100254.16
2018-11-21T07:30:39.470Z,100251.67
2018-11-21T07:33:08.448Z,100260.48
2018-11-21T07:35:37.373Z,100257.68
2018-11-21T07:38:25.432Z,100255.35
2018-11-21T07:41:13.969Z,100263.69
2018-11-21T07:43:43.146Z,100262.18
2018-11-21T07:46:12.534Z,100265.56
2018-11-21T07:48:41.671Z,100264.36
2018-11-21T07:51:29.838Z,100276.38
2018-11-21T07:53:58.749Z,100279.52
2018-11-21T07:57:06.582Z,100279.83
2018-11-21T07:59:35.497Z,100280.39
2018-11-21T08:02:29.955Z,100281.83
2018-11-21T08:05:13.395Z,100285.03
2018-11-21T08:07:51.020Z,100283.27
2018-11-21T08:10:37.737Z,100286.20
2018-11-21T08:13:25.849Z,100289.36
2018-11-21T08:16:20.922Z,100289.41
2018-11-21T08:19:14.729Z,100295.44
2018-11-21T08:22:05.578Z,100300.05
2018-11-21T08:24:46.376Z,100298.37
2018-11-21T08:27:24.400Z,100308.50
2018-11-21T08:29:53.347Z,100314.98
2018-11-21T08:32:22.259Z,100311.91
2018-11-21T08:34:51.183Z,100321.91
2018-11-21T08:37:20.139Z,100323.75
2018-11-21T08:39:49.093Z,100326.86
2018-11-21T08:42:18.326Z,100328.59
2018-11-21T08:44:47.247Z,100335.95
2018-11-21T08:47:16.176Z,100334.70
2018-11-21T08:49:45.170Z,100334.70
2018-11-21T08:52:14.112Z,100343.44
2018-11-21T08:54:43.064Z,100337.72
2018-11-21T08:57:11.968Z,100333.83
2018-11-21T08:59:41.185Z,100333.11
2018-11-21T09:02:10.098Z,100332.78
2018-11-21T09:04:39.022Z,100335.63
2018-11-21T09:07:07.986Z,100336.42
2018-11-21T09:09:37.140Z,100334.09
2018-11-21T09:12:08.716Z,100336.59
2018-11-21T09:14:35.230Z,100333.81
2018-11-21T09:17:04.177Z,100339.56
2018-11-21T09:19:33.386Z,100345.06
2018-11-21T09:22:02.337Z,100347.83
2018-11-21T09:24:31.354Z,100354.83
2018-11-21T09:27:00.544Z,100344.77
2018-11-21T09:29:29.466Z,100353.20
2018-11-21T09:31:58.928Z,100354.70
2018-11-21T09:34:27.836Z,100358.66
2018-11-21T09:36:57.002Z,100364.78
2018-11-21T09:39:25.933Z,100360.42
2018-11-21T09:41:55.090Z,100357.06
2018-11-21T09:44:24.116Z,100361.83
2018-11-21T09:46:53.091Z,100353.55
2018-11-21T09:49:22.011Z,100351.41
2018-11-21T09:51:51.162Z,100357.86
2018-11-21T09:54:20.087Z,100351.41
2018-11-21T09:56:49.049Z,100357.19
2018-11-21T09:59:17.982Z,100356.98
2018-11-21T10:02:23.507Z,100350.66
2018-11-21T10:04:53.002Z,100353.25
2018-11-21T10:07:21.934Z,100354.44
2018-11-21T10:09:51.612Z,100355.55
2018-11-21T10:12:20.573Z,100348.92
2018-11-21T10:14:49.464Z,100345.89
2018-11-21T10:17:18.367Z,100346.84
2018-11-21T10:19:47.542Z,100338.91
2018-11-21T10:22:16.633Z,100341.98
2018-11-21T10:24:45.553Z,100342.58
2018-11-21T10:27:14.506Z,100342.27
2018-11-21T10:29:43.717Z,100342.28
2018-11-21T10:32:12.673Z,100342.56
2018-11-21T10:34:41.816Z,100345.21
2018-11-21T10:37:10.741Z,100346.61
2018-11-21T10:39:39.690Z,100350.22
2018-11-21T10:42:08.648Z,100348.03
2018-11-21T10:44:37.536Z,100347.85
2018-11-21T10:47:06.716Z,100344.86
2018-11-21T10:49:35.651Z,100342.88
2018-11-21T10:52:05.025Z,100348.03
2018-11-21T10:54:34.043Z,100345.66
2018-11-21T10:57:02.971Z,100346.63
2018-11-21T10:59:31.904Z,100351.41
2018-11-21T11:02:37.878Z,100353.25
2018-11-21T11:05:32.376Z,100348.30
2018-11-21T11:08:26.200Z,100350.34
2018-11-21T11:11:15.495Z,100348.81
2018-11-21T11:14:01.926Z,100355.63
2018-11-21T11:16:49.116Z,100353.52
2018-11-21T11:19:28.198Z,100357.34
2018-11-21T11:22:34.576Z,100364.33
2018-11-21T11:25:22.709Z,100356.02
2018-11-21T11:28:16.297Z,100353.07
2018-11-21T11:31:02.612Z,100350.88
2018-11-21T11:33:44.198Z,100349.77
2018-11-21T11:36:30.763Z,100349.34
2018-11-21T11:39:30.679Z,100353.33
2018-11-21T11:42:17.531Z,100356.39
2018-11-21T11:45:04.007Z,100359.41
2018-11-21T11:48:08.448Z,100364.50
2018-11-21T11:51:02.567Z,100363.06
2018-11-21T11:53:51.259Z,100355.57
2018-11-21T11:56:37.828Z,100360.11
2018-11-21T11:59:24.410Z,100368.87
2018-11-21T12:02:24.284Z,100370.02
2018-11-21T12:05:11.006Z,100369.00
2018-11-21T12:07:59.319Z,100370.68
2018-11-21T12:10:46.005Z,100375.89
2018-11-21T12:13:27.188Z,100367.62
2018-11-21T12:16:13.707Z,100368.27
2018-11-21T12:19:05.651Z,100364.59
2018-11-21T12:21:59.656Z,100363.58
2018-11-21T12:24:44.781Z,100356.28
2018-11-21T12:27:26.520Z,100354.63
2018-11-21T12:30:17.722Z,100358.94
2018-11-21T12:33:17.930Z,100355.16
2018-11-21T12:36:08.015Z,100354.77
2018-11-21T12:38:56.392Z,100361.52
2018-11-21T12:41:43.017Z,100358.07
2018-11-21T12:44:26.525Z,100354.97
2018-11-21T12:47:13.361Z,100360.72
2018-11-21T12:50:04.280Z,100348.81
2018-11-21T12:52:50.408Z,100362.55
2018-11-21T12:55:30.649Z,100367.77
2018-11-21T12:58:06.553Z,100368.65
2018-11-21T13:01:00.553Z,100368.37
2018-11-21T13:03:45.074Z,100365.27
2018-11-21T13:06:32.444Z,100369.17
2018-11-21T13:09:20.567Z,100368.93
2018-11-21T13:12:02.663Z,100375.19
2018-11-21T13:14:42.805Z,100372.55
2018-11-21T13:17:30.939Z,100365.86
2018-11-21T13:20:27.911Z,100376.63
2018-11-21T13:23:08.194Z,100378.98
2018-11-21T13:25:56.374Z,100372.23
2018-11-21T13:28:42.765Z,100383.70
2018-11-21T13:31:29.364Z,100383.55
2018-11-21T13:34:17.456Z,100381.31
2018-11-21T13:37:11.876Z,100383.23
2018-11-21T13:40:03.155Z,100392.64
2018-11-21T13:42:45.898Z,100394.59
2018-11-21T13:45:24.585Z,100390.02
2018-11-21T13:48:18.297Z,100392.09
2018-11-21T13:51:13.097Z,100398.19
2018-11-21T13:54:18.997Z,100400.16
2018-11-21T13:56:48.943Z,100405.36
2018-11-21T13:59:17.884Z,100404.16
2018-11-21T14:01:46.813Z,100398.28
2018-11-21T14:04:15.877Z,100400.17
2018-11-21T14:06:44.795Z,100402.16
2018-11-21T14:09:18.588Z,100399.72
2018-11-21T14:11:48.146Z,100404.01
2018-11-21T14:14:17.556Z,100406.80
2018-11-21T14:16:46.792Z,100408.09
2018-11-21T14:19:15.765Z,100410.61
2018-11-21T14:21:44.719Z,100410.81
2018-11-21T14:24:14.117Z,100409.69
2018-11-21T14:26:43.023Z,100412.85
2018-11-21T14:29:12.184Z,100405.33
2018-11-21T14:31:41.126Z,100403.28
2018-11-21T14:34:10.057Z,100406.16
2018-11-21T14:36:39.103Z,100408.09
2018-11-21T14:39:10.287Z,100410.73
2018-11-21T14:41:41.020Z,100411.86
2018-11-21T14:44:10.348Z,100411.56
2018-11-21T14:46:40.029Z,100406.08
2018-11-21T14:49:09.310Z,100409.01
2018-11-21T14:51:38.730Z,100408.92
2018-11-21T14:54:08.293Z,100408.64
2018-11-21T14:56:37.300Z,100411.09
2018-11-21T14:59:06.459Z,100411.56
2018-11-21T15:01:35.428Z,100409.77
2018-11-21T15:04:04.386Z,100415.37
2018-11-21T15:06:33.776Z,100415.25
2018-11-21T15:09:03.012Z,100415.77
2018-11-21T15:11:32.348Z,100426.94
2018-11-21T15:14:02.229Z,100427.14
2018-11-21T15:16:31.158Z,100431.98
2018-11-21T15:19:00.126Z,100438.08
2018-11-21T15:21:29.060Z,100440.03
2018-11-21T15:23:57.990Z,100446.72
2018-11-21T15:26:26.924Z,100446.44
2018-11-21T15:28:55.926Z,100447.44
2018-11-21T15:31:25.202Z,100446.64
2018-11-21T15:33:54.194Z,100445.75
2018-11-21T15:36:23.454Z,100448.27
2018-11-21T15:38:52.403Z,100446.80
2018-11-21T15:41:21.560Z,100442.84
2018-11-21T15:43:50.518Z,100445.88
2018-11-21T15:46:19.414Z,100447.72
2018-11-21T15:48:48.343Z,100446.97
2018-11-21T15:51:17.261Z,100453.89
2018-11-21T15:53:46.189Z,100456.02
2018-11-21T15:56:15.104Z,100461.82
2018-11-21T15:58:44.025Z,100457.77
2018-11-21T16:01:13.056Z,100457.98
2018-11-21T16:03:41.959Z,100463.27
2018-11-21T16:06:10.898Z,100457.54
2018-11-21T16:08:39.868Z,100455.94
2018-11-21T16:11:08.816Z,100466.55
2018-11-21T16:13:37.808Z,100471.23
2018-11-21T16:16:06.735Z,100472.91
2018-11-21T16:18:35.655Z,100466.67
2018-11-21T16:21:04.585Z,100475.60
2018-11-21T16:23:33.557Z,100475.80
2018-11-21T16:26:02.776Z,100480.66
2018-11-21T16:28:31.727Z,100485.66
2018-11-21T16:31:00.946Z,100483.73
2018-11-21T16:33:29.918Z,100485.48
2018-11-21T16:35:58.784Z,100489.91
2018-11-21T16:38:27.758Z,100497.41
2018-11-21T16:40:56.948Z,100495.86
2018-11-21T16:43:26.089Z,100494.34
2018-11-21T16:45:56.746Z,100494.22
2018-11-21T16:48:25.665Z,100496.69
2018-11-21T16:50:54.663Z,100490.29
2018-11-21T16:53:23.521Z,100499.34
2018-11-21T16:55:52.528Z,100494.34
2018-11-21T16:58:21.510Z,100501.00
2018-11-21T17:00:50.451Z,100500.59
2018-11-21T17:03:19.448Z,100498.70
2018-11-21T17:05:48.613Z,100502.12
2018-11-21T17:08:17.519Z,100503.29
2018-11-21T17:10:46.459Z,100507.11
2018-11-21T17:13:15.414Z,100505.80
2018-11-21T17:15:44.385Z,100501.48
2018-11-21T17:18:13.298Z,100500.57
2018-11-21T17:20:43.906Z,100500.86
2018-11-21T17:23:12.831Z,100498.24
2018-11-21T17:25:42.190Z,100507.31
2018-11-21T17:28:11.183Z,100499.19
2018-11-21T17:30:40.208Z,100502.01
2018-11-21T17:33:09.127Z,100499.36
2018-11-21T17:35:38.312Z,100506.48
2018-11-21T17:38:07.572Z,100509.67
2018-11-21T17:40:38.359Z,100510.97
2018-11-21T17:43:07.712Z,100505.94
2018-11-21T17:45:36.550Z,100509.59
2018-11-21T17:48:05.939Z,100511.48
2018-11-21T17:50:34.969Z,100517.77
2018-11-21T17:53:05.242Z,100517.74
2018-11-21T17:55:35.546Z,100519.09
2018-11-21T17:58:04.449Z,100522.94
